sensor_id;sensor_type;location;lat;lon;timestamp;temperature;humidity
69031;DHT22;56083;48.774;8.942;2023-04-24T00:01:25;10.60;99.90
69031;DHT22;56083;48.774;8.942;2023-04-24T00:03:52;10.60;99.90
69031;DHT22;56083;48.774;8.942;2023-04-24T00:06:17;10.60;99.90
69031;DHT22;56083;48.774;8.942;2023-04-24T00:08:43;10.60;99.90
69031;DHT22;56083;48.774;8.942;2023-04-24T00:11:09;10.70;99.90
69031;DHT22;56083;48.774;8.942;2023-04-24T00:13:35;10.60;99.90
69031;DHT22;56083;48.774;8.942;2023-04-24T00:16:00;10.60;99.90
69031;DHT22;56083;48.774;8.942;2023-04-24T00:18:26;10.60;99.90
69031;DHT22;56083;48.774;8.942;2023-04-24T00:20:52;10.70;99.90
69031;DHT22;56083;48.774;8.942;2023-04-24T00:23:18;10.70;99.90
69031;DHT22;56083;48.774;8.942;2023-04-24T00:25:43;10.70;99.90
69031;DHT22;56083;48.774;8.942;2023-04-24T00:28:09;10.80;99.90
69031;DHT22;56083;48.774;8.942;2023-04-24T00:30:34;10.70;99.90
69031;DHT22;56083;48.774;8.942;2023-04-24T00:33:00;10.70;99.90
69031;DHT22;56083;48.774;8.942;2023-04-24T00:35:26;10.80;99.90
69031;DHT22;56083;48.774;8.942;2023-04-24T00:37:51;10.70;99.90
69031;DHT22;56083;48.774;8.942;2023-04-24T00:40:17;10.70;99.90
69031;DHT22;56083;48.774;8.942;2023-04-24T00:42:43;10.70;99.90
69031;DHT22;56083;48.774;8.942;2023-04-24T00:45:09;10.70;99.90
69031;DHT22;56083;48.774;8.942;2023-04-24T00:47:36;10.70;99.90
69031;DHT22;56083;48.774;8.942;2023-04-24T00:50:05;10.70;99.90
69031;DHT22;56083;48.774;8.942;2023-04-24T00:52:32;10.70;99.90
69031;DHT22;56083;48.774;8.942;2023-04-24T00:54:58;10.70;99.90
69031;DHT22;56083;48.774;8.942;2023-04-24T00:57:24;10.70;99.90
69031;DHT22;56083;48.774;8.942;2023-04-24T00:59:51;10.60;99.90
69031;DHT22;56083;48.774;8.942;2023-04-24T01:02:18;10.70;99.90
69031;DHT22;56083;48.774;8.942;2023-04-24T01:04:45;10.70;99.90
69031;DHT22;56083;48.774;8.942;2023-04-24T01:07:10;10.60;99.90
69031;DHT22;56083;48.774;8.942;2023-04-24T01:09:43;10.60;99.90
69031;DHT22;56083;48.774;8.942;2023-04-24T01:12:12;10.60;99.90
69031;DHT22;56083;48.774;8.942;2023-04-24T01:14:38;10.60;99.90
69031;DHT22;56083;48.774;8.942;2023-04-24T01:17:03;10.50;99.90
69031;DHT22;56083;48.774;8.942;2023-04-24T01:19:29;10.50;99.90
69031;DHT22;56083;48.774;8.942;2023-04-24T01:21:58;10.40;99.90
69031;DHT22;56083;48.774;8.942;2023-04-24T01:24:23;10.40;99.90
69031;DHT22;56083;48.774;8.942;2023-04-24T01:26:49;10.30;99.90
69031;DHT22;56083;48.774;8.942;2023-04-24T01:29:15;10.30;99.90
69031;DHT22;56083;48.774;8.942;2023-04-24T01:31:41;10.30;99.90
69031;DHT22;56083;48.774;8.942;2023-04-24T01:34:07;10.30;99.90
69031;DHT22;56083;48.774;8.942;2023-04-24T01:36:34;10.20;99.90
69031;DHT22;56083;48.774;8.942;2023-04-24T01:39:00;10.20;99.90
69031;DHT22;56083;48.774;8.942;2023-04-24T01:41:26;10.10;99.90
69031;DHT22;56083;48.774;8.942;2023-04-24T01:43:53;10.10;99.90
69031;DHT22;56083;48.774;8.942;2023-04-24T01:46:19;10.10;99.90
69031;DHT22;56083;48.774;8.942;2023-04-24T01:48:45;10.10;99.90
69031;DHT22;56083;48.774;8.942;2023-04-24T01:51:11;10.00;99.90
69031;DHT22;56083;48.774;8.942;2023-04-24T01:53:36;10.00;99.90
69031;DHT22;56083;48.774;8.942;2023-04-24T01:56:02;10.00;99.90
69031;DHT22;56083;48.774;8.942;2023-04-24T01:58:28;10.00;99.90
69031;DHT22;56083;48.774;8.942;2023-04-24T02:00:56;10.00;99.90
69031;DHT22;56083;48.774;8.942;2023-04-24T02:03:23;10.00;99.90
69031;DHT22;56083;48.774;8.942;2023-04-24T02:05:48;10.00;99.90
69031;DHT22;56083;48.774;8.942;2023-04-24T02:08:14;10.00;99.90
69031;DHT22;56083;48.774;8.942;2023-04-24T02:10:39;10.00;99.90
69031;DHT22;56083;48.774;8.942;2023-04-24T02:13:05;10.10;99.90
69031;DHT22;56083;48.774;8.942;2023-04-24T02:15:31;10.10;99.90
69031;DHT22;56083;48.774;8.942;2023-04-24T02:17:56;10.10;99.90
69031;DHT22;56083;48.774;8.942;2023-04-24T02:20:22;10.10;99.90
69031;DHT22;56083;48.774;8.942;2023-04-24T02:22:48;10.10;99.90
69031;DHT22;56083;48.774;8.942;2023-04-24T02:25:13;10.20;99.90
69031;DHT22;56083;48.774;8.942;2023-04-24T02:27:39;10.10;99.90
69031;DHT22;56083;48.774;8.942;2023-04-24T02:30:05;10.10;99.90
69031;DHT22;56083;48.774;8.942;2023-04-24T02:32:31;9.90;99.90
69031;DHT22;56083;48.774;8.942;2023-04-24T02:34:56;9.70;99.90
69031;DHT22;56083;48.774;8.942;2023-04-24T02:37:22;9.60;99.90
69031;DHT22;56083;48.774;8.942;2023-04-24T02:39:48;9.50;99.90
69031;DHT22;56083;48.774;8.942;2023-04-24T02:42:13;9.50;99.90
69031;DHT22;56083;48.774;8.942;2023-04-24T02:44:39;9.40;99.90
69031;DHT22;56083;48.774;8.942;2023-04-24T02:47:04;9.30;99.90
69031;DHT22;56083;48.774;8.942;2023-04-24T02:49:30;9.30;99.90
69031;DHT22;56083;48.774;8.942;2023-04-24T02:51:55;9.20;99.90
69031;DHT22;56083;48.774;8.942;2023-04-24T02:54:21;9.20;99.90
69031;DHT22;56083;48.774;8.942;2023-04-24T02:56:47;9.20;99.90
69031;DHT22;56083;48.774;8.942;2023-04-24T02:59:12;9.10;99.90
69031;DHT22;56083;48.774;8.942;2023-04-24T03:01:38;9.10;99.90
69031;DHT22;56083;48.774;8.942;2023-04-24T03:04:03;9.10;99.90
69031;DHT22;56083;48.774;8.942;2023-04-24T03:06:29;9.10;99.90
69031;DHT22;56083;48.774;8.942;2023-04-24T03:08:56;9.00;99.90
69031;DHT22;56083;48.774;8.942;2023-04-24T03:11:22;9.00;99.90
69031;DHT22;56083;48.774;8.942;2023-04-24T03:13:47;8.90;99.90
69031;DHT22;56083;48.774;8.942;2023-04-24T03:16:13;8.90;99.90
69031;DHT22;56083;48.774;8.942;2023-04-24T03:18:39;8.90;99.90
69031;DHT22;56083;48.774;8.942;2023-04-24T03:21:04;8.90;99.90
69031;DHT22;56083;48.774;8.942;2023-04-24T03:23:30;9.00;99.90
69031;DHT22;56083;48.774;8.942;2023-04-24T03:25:56;9.00;99.90
69031;DHT22;56083;48.774;8.942;2023-04-24T03:28:21;9.00;99.90
69031;DHT22;56083;48.774;8.942;2023-04-24T03:30:47;9.00;99.90
69031;DHT22;56083;48.774;8.942;2023-04-24T03:33:13;8.90;99.90
69031;DHT22;56083;48.774;8.942;2023-04-24T03:35:39;8.90;99.90
69031;DHT22;56083;48.774;8.942;2023-04-24T03:38:04;8.80;99.90
69031;DHT22;56083;48.774;8.942;2023-04-24T03:40:30;8.80;99.90
69031;DHT22;56083;48.774;8.942;2023-04-24T03:42:55;8.80;99.90
69031;DHT22;56083;48.774;8.942;2023-04-24T03:45:21;8.80;99.90
69031;DHT22;56083;48.774;8.942;2023-04-24T03:47:47;8.70;99.90
69031;DHT22;56083;48.774;8.942;2023-04-24T03:50:12;8.80;99.90
69031;DHT22;56083;48.774;8.942;2023-04-24T03:52:38;8.80;99.90
69031;DHT22;56083;48.774;8.942;2023-04-24T03:55:04;8.80;99.90
69031;DHT22;56083;48.774;8.942;2023-04-24T03:57:30;8.80;99.90
69031;DHT22;56083;48.774;8.942;2023-04-24T03:59:55;8.80;99.90
69031;DHT22;56083;48.774;8.942;2023-04-24T04:02:21;8.90;99.90
69031;DHT22;56083;48.774;8.942;2023-04-24T04:04:46;8.90;99.90
69031;DHT22;56083;48.774;8.942;2023-04-24T04:07:12;9.00;99.90
69031;DHT22;56083;48.774;8.942;2023-04-24T04:09:38;8.90;99.90
69031;DHT22;56083;48.774;8.942;2023-04-24T04:12:04;9.00;99.90
69031;DHT22;56083;48.774;8.942;2023-04-24T04:14:29;9.00;99.90
69031;DHT22;56083;48.774;8.942;2023-04-24T04:16:55;8.90;99.90
69031;DHT22;56083;48.774;8.942;2023-04-24T04:19:21;8.70;99.90
69031;DHT22;56083;48.774;8.942;2023-04-24T04:21:46;8.60;99.90
69031;DHT22;56083;48.774;8.942;2023-04-24T04:24:17;8.40;99.90
69031;DHT22;56083;48.774;8.942;2023-04-24T04:26:43;8.40;99.90
69031;DHT22;56083;48.774;8.942;2023-04-24T04:29:13;8.20;99.90
69031;DHT22;56083;48.774;8.942;2023-04-24T04:31:38;8.10;99.90
69031;DHT22;56083;48.774;8.942;2023-04-24T04:34:04;8.10;99.90
69031;DHT22;56083;48.774;8.942;2023-04-24T04:36:30;8.00;99.90
69031;DHT22;56083;48.774;8.942;2023-04-24T04:38:56;8.00;99.90
69031;DHT22;56083;48.774;8.942;2023-04-24T04:41:22;8.00;99.90
69031;DHT22;56083;48.774;8.942;2023-04-24T04:43:48;7.90;99.90
69031;DHT22;56083;48.774;8.942;2023-04-24T04:46:13;7.90;99.90
69031;DHT22;56083;48.774;8.942;2023-04-24T04:48:39;7.80;99.90
69031;DHT22;56083;48.774;8.942;2023-04-24T04:51:05;7.80;99.90
69031;DHT22;56083;48.774;8.942;2023-04-24T04:53:31;7.80;99.90
69031;DHT22;56083;48.774;8.942;2023-04-24T04:55:57;7.80;99.90
69031;DHT22;56083;48.774;8.942;2023-04-24T04:58:23;7.80;99.90
69031;DHT22;56083;48.774;8.942;2023-04-24T05:00:48;7.80;99.90
69031;DHT22;56083;48.774;8.942;2023-04-24T05:03:14;7.70;99.90
69031;DHT22;56083;48.774;8.942;2023-04-24T05:05:40;7.70;99.90
69031;DHT22;56083;48.774;8.942;2023-04-24T05:08:07;7.70;99.90
69031;DHT22;56083;48.774;8.942;2023-04-24T05:10:33;7.70;99.90
69031;DHT22;56083;48.774;8.942;2023-04-24T05:12:58;7.70;99.90
69031;DHT22;56083;48.774;8.942;2023-04-24T05:15:24;7.80;99.90
69031;DHT22;56083;48.774;8.942;2023-04-24T05:17:51;7.80;99.90
69031;DHT22;56083;48.774;8.942;2023-04-24T05:20:16;7.80;99.90
69031;DHT22;56083;48.774;8.942;2023-04-24T05:22:43;7.80;99.90
69031;DHT22;56083;48.774;8.942;2023-04-24T05:25:08;7.70;99.90
69031;DHT22;56083;48.774;8.942;2023-04-24T05:27:34;7.70;99.90
69031;DHT22;56083;48.774;8.942;2023-04-24T05:30:00;7.70;99.90
69031;DHT22;56083;48.774;8.942;2023-04-24T05:32:26;7.60;99.90
69031;DHT22;56083;48.774;8.942;2023-04-24T05:34:52;7.70;99.90
69031;DHT22;56083;48.774;8.942;2023-04-24T05:37:19;7.70;99.90
69031;DHT22;56083;48.774;8.942;2023-04-24T05:39:45;7.80;99.90
69031;DHT22;56083;48.774;8.942;2023-04-24T05:42:10;7.80;99.90
69031;DHT22;56083;48.774;8.942;2023-04-24T05:44:36;7.90;99.90
69031;DHT22;56083;48.774;8.942;2023-04-24T05:47:02;7.90;99.90
69031;DHT22;56083;48.774;8.942;2023-04-24T05:49:28;7.90;99.90
69031;DHT22;56083;48.774;8.942;2023-04-24T05:51:53;7.90;99.90
69031;DHT22;56083;48.774;8.942;2023-04-24T05:54:19;7.90;99.90
69031;DHT22;56083;48.774;8.942;2023-04-24T05:56:45;8.00;99.90
69031;DHT22;56083;48.774;8.942;2023-04-24T05:59:11;8.00;99.90
69031;DHT22;56083;48.774;8.942;2023-04-24T06:01:37;8.10;99.90
69031;DHT22;56083;48.774;8.942;2023-04-24T06:04:03;8.10;99.90
69031;DHT22;56083;48.774;8.942;2023-04-24T06:06:30;8.20;99.90
69031;DHT22;56083;48.774;8.942;2023-04-24T06:08:56;8.30;99.90
69031;DHT22;56083;48.774;8.942;2023-04-24T06:11:22;8.50;99.90
69031;DHT22;56083;48.774;8.942;2023-04-24T06:13:48;8.60;99.90
69031;DHT22;56083;48.774;8.942;2023-04-24T06:16:14;8.70;99.90
69031;DHT22;56083;48.774;8.942;2023-04-24T06:18:40;8.80;99.90
69031;DHT22;56083;48.774;8.942;2023-04-24T06:21:05;9.00;99.90
69031;DHT22;56083;48.774;8.942;2023-04-24T06:23:31;9.20;99.90
69031;DHT22;56083;48.774;8.942;2023-04-24T06:25:58;9.40;99.90
69031;DHT22;56083;48.774;8.942;2023-04-24T06:28:24;9.70;99.90
69031;DHT22;56083;48.774;8.942;2023-04-24T06:30:50;9.90;99.90
69031;DHT22;56083;48.774;8.942;2023-04-24T06:33:16;10.00;99.90
69031;DHT22;56083;48.774;8.942;2023-04-24T06:35:42;10.30;99.90
69031;DHT22;56083;48.774;8.942;2023-04-24T06:38:07;10.40;99.90
69031;DHT22;56083;48.774;8.942;2023-04-24T06:40:34;10.70;99.90
69031;DHT22;56083;48.774;8.942;2023-04-24T06:43:00;11.10;99.90
69031;DHT22;56083;48.774;8.942;2023-04-24T06:45:28;11.20;99.90
69031;DHT22;56083;48.774;8.942;2023-04-24T06:47:54;11.20;99.90
69031;DHT22;56083;48.774;8.942;2023-04-24T06:50:20;11.30;99.90
69031;DHT22;56083;48.774;8.942;2023-04-24T06:52:45;11.40;99.90
69031;DHT22;56083;48.774;8.942;2023-04-24T06:55:11;11.30;99.90
69031;DHT22;56083;48.774;8.942;2023-04-24T06:57:37;11.30;99.90
69031;DHT22;56083;48.774;8.942;2023-04-24T07:00:04;11.20;99.90
69031;DHT22;56083;48.774;8.942;2023-04-24T07:02:31;11.20;99.90
69031;DHT22;56083;48.774;8.942;2023-04-24T07:04:57;11.10;99.90
69031;DHT22;56083;48.774;8.942;2023-04-24T07:07:23;11.00;99.90
69031;DHT22;56083;48.774;8.942;2023-04-24T07:09:49;10.80;99.90
69031;DHT22;56083;48.774;8.942;2023-04-24T07:12:16;10.80;99.90
69031;DHT22;56083;48.774;8.942;2023-04-24T07:14:42;10.90;99.90
69031;DHT22;56083;48.774;8.942;2023-04-24T07:17:08;11.20;99.90
69031;DHT22;56083;48.774;8.942;2023-04-24T07:19:34;11.30;99.90
69031;DHT22;56083;48.774;8.942;2023-04-24T07:22:03;11.60;99.90
69031;DHT22;56083;48.774;8.942;2023-04-24T07:24:29;11.80;99.90
69031;DHT22;56083;48.774;8.942;2023-04-24T07:26:57;11.80;99.90
69031;DHT22;56083;48.774;8.942;2023-04-24T07:29:23;11.90;99.90
69031;DHT22;56083;48.774;8.942;2023-04-24T07:31:48;12.00;99.90
69031;DHT22;56083;48.774;8.942;2023-04-24T07:34:14;11.90;99.90
69031;DHT22;56083;48.774;8.942;2023-04-24T07:36:40;11.90;99.90
69031;DHT22;56083;48.774;8.942;2023-04-24T07:39:06;11.70;99.90
69031;DHT22;56083;48.774;8.942;2023-04-24T07:41:32;11.50;99.90
69031;DHT22;56083;48.774;8.942;2023-04-24T07:43:58;11.40;99.90
69031;DHT22;56083;48.774;8.942;2023-04-24T07:46:24;11.40;99.90
69031;DHT22;56083;48.774;8.942;2023-04-24T07:48:50;11.40;99.90
69031;DHT22;56083;48.774;8.942;2023-04-24T07:51:16;11.30;99.90
69031;DHT22;56083;48.774;8.942;2023-04-24T07:53:43;11.10;99.90
69031;DHT22;56083;48.774;8.942;2023-04-24T07:56:08;11.40;99.90
69031;DHT22;56083;48.774;8.942;2023-04-24T07:58:34;11.60;99.90
69031;DHT22;56083;48.774;8.942;2023-04-24T08:01:00;11.80;99.90
69031;DHT22;56083;48.774;8.942;2023-04-24T08:03:26;12.10;99.90
69031;DHT22;56083;48.774;8.942;2023-04-24T08:05:51;12.20;99.90
69031;DHT22;56083;48.774;8.942;2023-04-24T08:08:19;11.80;99.90
69031;DHT22;56083;48.774;8.942;2023-04-24T08:10:45;11.60;99.90
69031;DHT22;56083;48.774;8.942;2023-04-24T08:13:11;11.50;99.90
69031;DHT22;56083;48.774;8.942;2023-04-24T08:15:37;11.40;99.90
69031;DHT22;56083;48.774;8.942;2023-04-24T08:18:02;11.50;99.90
69031;DHT22;56083;48.774;8.942;2023-04-24T08:20:28;11.40;99.90
69031;DHT22;56083;48.774;8.942;2023-04-24T08:22:54;11.80;99.90
69031;DHT22;56083;48.774;8.942;2023-04-24T08:25:20;12.00;99.90
69031;DHT22;56083;48.774;8.942;2023-04-24T08:27:48;11.70;99.90
69031;DHT22;56083;48.774;8.942;2023-04-24T08:30:14;11.30;99.90
69031;DHT22;56083;48.774;8.942;2023-04-24T08:32:40;11.00;99.90
69031;DHT22;56083;48.774;8.942;2023-04-24T08:35:06;10.80;99.90
69031;DHT22;56083;48.774;8.942;2023-04-24T08:37:34;10.80;99.90
69031;DHT22;56083;48.774;8.942;2023-04-24T08:40:00;10.90;99.90
69031;DHT22;56083;48.774;8.942;2023-04-24T08:42:28;11.10;99.90
69031;DHT22;56083;48.774;8.942;2023-04-24T08:44:54;11.80;99.90
69031;DHT22;56083;48.774;8.942;2023-04-24T08:47:20;11.80;99.90
69031;DHT22;56083;48.774;8.942;2023-04-24T08:49:48;11.40;99.90
69031;DHT22;56083;48.774;8.942;2023-04-24T08:52:15;11.10;99.90
69031;DHT22;56083;48.774;8.942;2023-04-24T08:54:41;10.80;99.90
69031;DHT22;56083;48.774;8.942;2023-04-24T08:57:09;10.60;99.90
69031;DHT22;56083;48.774;8.942;2023-04-24T08:59:38;10.30;99.90
69031;DHT22;56083;48.774;8.942;2023-04-24T09:02:04;10.00;99.90
69031;DHT22;56083;48.774;8.942;2023-04-24T09:04:30;9.70;99.90
69031;DHT22;56083;48.774;8.942;2023-04-24T09:06:59;9.20;99.90
69031;DHT22;56083;48.774;8.942;2023-04-24T09:09:25;9.00;99.90
69031;DHT22;56083;48.774;8.942;2023-04-24T09:11:52;9.00;99.90
69031;DHT22;56083;48.774;8.942;2023-04-24T09:14:21;9.30;99.90
69031;DHT22;56083;48.774;8.942;2023-04-24T09:16:47;9.70;99.90
69031;DHT22;56083;48.774;8.942;2023-04-24T09:19:13;9.70;99.90
69031;DHT22;56083;48.774;8.942;2023-04-24T09:21:39;10.10;99.90
69031;DHT22;56083;48.774;8.942;2023-04-24T09:24:08;11.00;99.90
69031;DHT22;56083;48.774;8.942;2023-04-24T09:26:40;11.50;99.90
69031;DHT22;56083;48.774;8.942;2023-04-24T09:29:06;11.80;99.90
69031;DHT22;56083;48.774;8.942;2023-04-24T09:31:31;12.30;99.90
69031;DHT22;56083;48.774;8.942;2023-04-24T09:34:00;12.50;99.90
69031;DHT22;56083;48.774;8.942;2023-04-24T09:36:34;12.30;99.90
69031;DHT22;56083;48.774;8.942;2023-04-24T09:39:03;12.30;99.90
69031;DHT22;56083;48.774;8.942;2023-04-24T09:41:31;12.00;99.90
69031;DHT22;56083;48.774;8.942;2023-04-24T09:43:57;11.70;99.90
69031;DHT22;56083;48.774;8.942;2023-04-24T09:46:30;11.60;99.90
69031;DHT22;56083;48.774;8.942;2023-04-24T09:49:12;11.50;99.90
69031;DHT22;56083;48.774;8.942;2023-04-24T09:51:38;11.40;99.90
69031;DHT22;56083;48.774;8.942;2023-04-24T09:54:05;11.10;99.90
69031;DHT22;56083;48.774;8.942;2023-04-24T09:56:36;11.70;99.90
69031;DHT22;56083;48.774;8.942;2023-04-24T09:59:08;13.10;99.90
69031;DHT22;56083;48.774;8.942;2023-04-24T10:01:35;14.10;99.90
69031;DHT22;56083;48.774;8.942;2023-04-24T10:04:01;14.80;99.90
69031;DHT22;56083;48.774;8.942;2023-04-24T10:06:33;15.40;99.90
69031;DHT22;56083;48.774;8.942;2023-04-24T10:08:59;15.80;99.90
69031;DHT22;56083;48.774;8.942;2023-04-24T10:11:28;15.80;99.90
69031;DHT22;56083;48.774;8.942;2023-04-24T10:13:55;15.60;99.90
69031;DHT22;56083;48.774;8.942;2023-04-24T10:16:22;15.10;99.90
69031;DHT22;56083;48.774;8.942;2023-04-24T10:18:49;14.50;99.90
69031;DHT22;56083;48.774;8.942;2023-04-24T10:21:16;13.90;99.90
69031;DHT22;56083;48.774;8.942;2023-04-24T10:23:42;13.30;99.90
69031;DHT22;56083;48.774;8.942;2023-04-24T10:26:12;12.90;99.90
69031;DHT22;56083;48.774;8.942;2023-04-24T10:28:47;12.60;99.90
69031;DHT22;56083;48.774;8.942;2023-04-24T10:31:14;12.40;99.90
69031;DHT22;56083;48.774;8.942;2023-04-24T10:33:43;12.40;99.90
69031;DHT22;56083;48.774;8.942;2023-04-24T10:36:12;12.30;99.90
69031;DHT22;56083;48.774;8.942;2023-04-24T10:38:40;12.50;99.90
69031;DHT22;56083;48.774;8.942;2023-04-24T10:41:11;12.50;99.90
69031;DHT22;56083;48.774;8.942;2023-04-24T10:43:46;12.90;99.90
69031;DHT22;56083;48.774;8.942;2023-04-24T10:46:19;13.00;99.90
69031;DHT22;56083;48.774;8.942;2023-04-24T10:48:56;12.80;99.90
69031;DHT22;56083;48.774;8.942;2023-04-24T10:51:24;12.60;99.90
69031;DHT22;56083;48.774;8.942;2023-04-24T10:53:51;12.30;99.90
69031;DHT22;56083;48.774;8.942;2023-04-24T10:56:17;12.10;99.90
69031;DHT22;56083;48.774;8.942;2023-04-24T10:58:44;11.90;99.90
69031;DHT22;56083;48.774;8.942;2023-04-24T11:01:32;11.60;99.90
69031;DHT22;56083;48.774;8.942;2023-04-24T11:04:03;11.20;99.90
69031;DHT22;56083;48.774;8.942;2023-04-24T11:06:33;11.20;99.90
69031;DHT22;56083;48.774;8.942;2023-04-24T11:09:10;11.40;99.90
69031;DHT22;56083;48.774;8.942;2023-04-24T11:11:45;12.30;99.90
69031;DHT22;56083;48.774;8.942;2023-04-24T11:14:14;13.70;99.90
69031;DHT22;56083;48.774;8.942;2023-04-24T11:16:54;14.10;99.90
69031;DHT22;56083;48.774;8.942;2023-04-24T11:19:24;15.30;99.90
69031;DHT22;56083;48.774;8.942;2023-04-24T11:32:34;12.80;99.90
69031;DHT22;56083;48.774;8.942;2023-04-24T11:37:39;11.80;99.90
69031;DHT22;56083;48.774;8.942;2023-04-24T11:40:07;11.60;99.90
69031;DHT22;56083;48.774;8.942;2023-04-24T11:42:41;12.30;99.90
69031;DHT22;56083;48.774;8.942;2023-04-24T11:45:11;13.90;99.90
69031;DHT22;56083;48.774;8.942;2023-04-24T11:47:37;15.60;99.90
69031;DHT22;56083;48.774;8.942;2023-04-24T11:50:04;16.20;99.90
69031;DHT22;56083;48.774;8.942;2023-04-24T11:52:31;16.90;99.90
69031;DHT22;56083;48.774;8.942;2023-04-24T11:54:57;16.20;99.90
69031;DHT22;56083;48.774;8.942;2023-04-24T11:57:25;14.90;99.90
69031;DHT22;56083;48.774;8.942;2023-04-24T11:59:53;13.80;99.90
69031;DHT22;56083;48.774;8.942;2023-04-24T12:02:23;13.00;99.90
69031;DHT22;56083;48.774;8.942;2023-04-24T12:04:50;12.60;99.90
69031;DHT22;56083;48.774;8.942;2023-04-24T12:07:16;12.20;99.90
69031;DHT22;56083;48.774;8.942;2023-04-24T12:09:47;12.10;99.90
69031;DHT22;56083;48.774;8.942;2023-04-24T12:12:14;12.50;99.90
69031;DHT22;56083;48.774;8.942;2023-04-24T12:14:57;12.40;99.90
69031;DHT22;56083;48.774;8.942;2023-04-24T12:17:33;12.70;99.90
69031;DHT22;56083;48.774;8.942;2023-04-24T12:20:01;12.70;99.90
69031;DHT22;56083;48.774;8.942;2023-04-24T12:22:50;12.60;99.90
69031;DHT22;56083;48.774;8.942;2023-04-24T12:25:16;12.50;99.90
69031;DHT22;56083;48.774;8.942;2023-04-24T12:27:51;13.70;99.90
69031;DHT22;56083;48.774;8.942;2023-04-24T12:30:17;13.60;99.90
69031;DHT22;56083;48.774;8.942;2023-04-24T12:32:48;13.20;99.90
69031;DHT22;56083;48.774;8.942;2023-04-24T12:35:19;12.80;99.90
69031;DHT22;56083;48.774;8.942;2023-04-24T12:37:46;12.40;99.90
69031;DHT22;56083;48.774;8.942;2023-04-24T12:40:13;12.30;99.90
69031;DHT22;56083;48.774;8.942;2023-04-24T12:42:51;12.20;99.90
69031;DHT22;56083;48.774;8.942;2023-04-24T12:45:18;11.80;99.90
69031;DHT22;56083;48.774;8.942;2023-04-24T12:47:45;11.60;99.90
69031;DHT22;56083;48.774;8.942;2023-04-24T12:50:12;11.20;99.90
69031;DHT22;56083;48.774;8.942;2023-04-24T12:52:40;11.30;99.90
69031;DHT22;56083;48.774;8.942;2023-04-24T12:55:07;11.40;99.90
69031;DHT22;56083;48.774;8.942;2023-04-24T12:57:37;11.80;99.90
69031;DHT22;56083;48.774;8.942;2023-04-24T13:00:05;12.40;99.90
69031;DHT22;56083;48.774;8.942;2023-04-24T13:02:31;12.80;99.90
69031;DHT22;56083;48.774;8.942;2023-04-24T13:04:58;13.30;99.90
69031;DHT22;56083;48.774;8.942;2023-04-24T13:07:24;13.70;99.90
69031;DHT22;56083;48.774;8.942;2023-04-24T13:09:50;13.70;99.90
69031;DHT22;56083;48.774;8.942;2023-04-24T13:12:16;14.60;99.90
69031;DHT22;56083;48.774;8.942;2023-04-24T13:14:42;16.20;99.90
69031;DHT22;56083;48.774;8.942;2023-04-24T13:17:12;16.60;99.90
69031;DHT22;56083;48.774;8.942;2023-04-24T13:19:40;15.20;99.90
69031;DHT22;56083;48.774;8.942;2023-04-24T13:22:06;14.10;99.90
69031;DHT22;56083;48.774;8.942;2023-04-24T13:24:33;13.30;99.90
69031;DHT22;56083;48.774;8.942;2023-04-24T13:26:58;12.50;99.90
69031;DHT22;56083;48.774;8.942;2023-04-24T13:29:25;11.80;99.90
69031;DHT22;56083;48.774;8.942;2023-04-24T13:31:51;11.20;99.90
69031;DHT22;56083;48.774;8.942;2023-04-24T13:34:19;10.80;99.90
69031;DHT22;56083;48.774;8.942;2023-04-24T13:36:45;10.30;99.90
69031;DHT22;56083;48.774;8.942;2023-04-24T13:39:11;10.20;99.90
69031;DHT22;56083;48.774;8.942;2023-04-24T13:41:36;10.10;99.90
69031;DHT22;56083;48.774;8.942;2023-04-24T13:44:03;10.60;99.90
69031;DHT22;56083;48.774;8.942;2023-04-24T13:46:29;11.60;99.90
69031;DHT22;56083;48.774;8.942;2023-04-24T13:48:57;12.70;99.90
69031;DHT22;56083;48.774;8.942;2023-04-24T13:51:24;13.00;99.90
69031;DHT22;56083;48.774;8.942;2023-04-24T13:53:52;12.80;99.90
69031;DHT22;56083;48.774;8.942;2023-04-24T13:56:18;12.40;99.90
69031;DHT22;56083;48.774;8.942;2023-04-24T13:58:44;11.90;99.90
69031;DHT22;56083;48.774;8.942;2023-04-24T14:01:09;11.50;99.90
69031;DHT22;56083;48.774;8.942;2023-04-24T14:03:37;11.60;99.90
69031;DHT22;56083;48.774;8.942;2023-04-24T14:06:02;11.50;99.90
69031;DHT22;56083;48.774;8.942;2023-04-24T14:08:28;11.80;99.90
69031;DHT22;56083;48.774;8.942;2023-04-24T14:10:54;12.00;99.90
69031;DHT22;56083;48.774;8.942;2023-04-24T14:13:20;12.20;99.90
69031;DHT22;56083;48.774;8.942;2023-04-24T14:15:46;12.40;99.90
69031;DHT22;56083;48.774;8.942;2023-04-24T14:18:12;13.70;99.90
69031;DHT22;56083;48.774;8.942;2023-04-24T14:20:37;14.30;99.90
69031;DHT22;56083;48.774;8.942;2023-04-24T14:23:04;13.80;99.90
69031;DHT22;56083;48.774;8.942;2023-04-24T14:25:30;13.10;99.90
69031;DHT22;56083;48.774;8.942;2023-04-24T14:27:56;12.50;99.90
69031;DHT22;56083;48.774;8.942;2023-04-24T14:30:21;12.20;99.90
69031;DHT22;56083;48.774;8.942;2023-04-24T14:32:47;12.00;99.90
69031;DHT22;56083;48.774;8.942;2023-04-24T14:35:14;11.70;99.90
69031;DHT22;56083;48.774;8.942;2023-04-24T14:37:41;11.80;99.90
69031;DHT22;56083;48.774;8.942;2023-04-24T14:40:08;11.70;99.90
69031;DHT22;56083;48.774;8.942;2023-04-24T14:42:34;11.90;99.90
69031;DHT22;56083;48.774;8.942;2023-04-24T14:45:01;12.20;99.90
69031;DHT22;56083;48.774;8.942;2023-04-24T14:47:27;12.30;99.90
69031;DHT22;56083;48.774;8.942;2023-04-24T14:49:53;12.30;99.90
69031;DHT22;56083;48.774;8.942;2023-04-24T14:52:20;12.30;99.90
69031;DHT22;56083;48.774;8.942;2023-04-24T14:54:46;12.00;99.90
69031;DHT22;56083;48.774;8.942;2023-04-24T14:57:11;11.70;99.90
69031;DHT22;56083;48.774;8.942;2023-04-24T14:59:37;11.40;99.90
69031;DHT22;56083;48.774;8.942;2023-04-24T15:02:03;11.20;99.90
69031;DHT22;56083;48.774;8.942;2023-04-24T15:04:28;11.00;99.90
69031;DHT22;56083;48.774;8.942;2023-04-24T15:06:55;10.90;99.90
69031;DHT22;56083;48.774;8.942;2023-04-24T15:09:24;10.70;99.90
69031;DHT22;56083;48.774;8.942;2023-04-24T15:11:51;10.70;99.90
69031;DHT22;56083;48.774;8.942;2023-04-24T15:14:18;10.60;99.90
69031;DHT22;56083;48.774;8.942;2023-04-24T15:16:44;10.40;99.90
69031;DHT22;56083;48.774;8.942;2023-04-24T15:19:10;10.30;99.90
69031;DHT22;56083;48.774;8.942;2023-04-24T15:21:37;10.30;99.90
69031;DHT22;56083;48.774;8.942;2023-04-24T15:24:03;10.40;99.90
69031;DHT22;56083;48.774;8.942;2023-04-24T15:26:29;10.10;99.90
69031;DHT22;56083;48.774;8.942;2023-04-24T15:28:55;9.90;99.90
69031;DHT22;56083;48.774;8.942;2023-04-24T15:31:20;9.70;99.90
69031;DHT22;56083;48.774;8.942;2023-04-24T15:33:48;9.50;99.90
69031;DHT22;56083;48.774;8.942;2023-04-24T15:36:15;9.40;99.90
69031;DHT22;56083;48.774;8.942;2023-04-24T15:38:41;9.40;99.90
69031;DHT22;56083;48.774;8.942;2023-04-24T15:41:08;9.40;99.90
69031;DHT22;56083;48.774;8.942;2023-04-24T15:43:33;10.00;99.90
69031;DHT22;56083;48.774;8.942;2023-04-24T15:46:00;11.10;99.90